sensor_id;sensor_type;location;lat;lon;timestamp;pressure;altitude;pressure_sealevel;temperature;humidity
6668;BME280;3370;47.712;9.082;2023-04-09T00:02:18;97635.16;;;5.69;97.98
6668;BME280;3370;47.712;9.082;2023-04-09T00:04:43;97637.88;;;5.58;98.53
6668;BME280;3370;47.712;9.082;2023-04-09T00:07:09;97634.53;;;5.54;98.95
6668;BME280;3370;47.712;9.082;2023-04-09T00:09:35;97633.78;;;5.49;97.73
6668;BME280;3370;47.712;9.082;2023-04-09T00:12:01;97632.22;;;5.39;98.63
6668;BME280;3370;47.712;9.082;2023-04-09T00:14:28;97634.00;;;5.34;99.29
6668;BME280;3370;47.712;9.082;2023-04-09T00:16:53;97637.41;;;5.33;99.67
6668;BME280;3370;47.712;9.082;2023-04-09T00:19:19;97624.72;;;5.28;99.66
6668;BME280;3370;47.712;9.082;2023-04-09T00:21:45;97628.25;;;5.21;99.90
6668;BME280;3370;47.712;9.082;2023-04-09T00:24:13;97621.53;;;5.15;99.79
6668;BME280;3370;47.712;9.082;2023-04-09T00:26:39;97625.84;;;5.10;99.87
6668;BME280;3370;47.712;9.082;2023-04-09T00:29:05;97617.50;;;5.01;99.95
6668;BME280;3370;47.712;9.082;2023-04-09T00:31:30;97623.44;;;4.98;99.36
6668;BME280;3370;47.712;9.082;2023-04-09T00:33:57;97611.66;;;4.91;99.18
6668;BME280;3370;47.712;9.082;2023-04-09T00:36:23;97617.69;;;4.85;99.14
6668;BME280;3370;47.712;9.082;2023-04-09T00:38:52;97612.66;;;4.80;98.96
6668;BME280;3370;47.712;9.082;2023-04-09T00:41:18;97621.28;;;4.70;98.96
6668;BME280;3370;47.712;9.082;2023-04-09T00:43:44;97614.47;;;4.69;98.56
6668;BME280;3370;47.712;9.082;2023-04-09T00:46:10;97617.03;;;4.69;97.25
6668;BME280;3370;47.712;9.082;2023-04-09T00:48:36;97617.22;;;4.54;98.12
6668;BME280;3370;47.712;9.082;2023-04-09T00:51:02;97618.03;;;4.59;96.11
6668;BME280;3370;47.712;9.082;2023-04-09T00:53:28;97618.97;;;4.50;96.31
6668;BME280;3370;47.712;9.082;2023-04-09T00:55:54;97614.81;;;4.43;96.14
6668;BME280;3370;47.712;9.082;2023-04-09T00:58:21;97615.72;;;4.39;96.20
6668;BME280;3370;47.712;9.082;2023-04-09T01:00:47;97618.94;;;4.52;93.65
6668;BME280;3370;47.712;9.082;2023-04-09T01:03:13;97616.53;;;4.41;91.94
6668;BME280;3370;47.712;9.082;2023-04-09T01:08:44;97606.00;;;3.91;97.21
6668;BME280;3370;47.712;9.082;2023-04-09T01:14:20;97605.16;;;3.94;97.55
6668;BME280;3370;47.712;9.082;2023-04-09T01:16:58;97608.59;;;3.88;97.39
6668;BME280;3370;47.712;9.082;2023-04-09T01:19:46;97601.56;;;4.12;94.43
6668;BME280;3370;47.712;9.082;2023-04-09T01:28:38;97604.94;;;4.14;94.78
6668;BME280;3370;47.712;9.082;2023-04-09T01:31:13;97601.56;;;4.12;94.56
6668;BME280;3370;47.712;9.082;2023-04-09T01:33:41;97601.59;;;4.09;94.53
6668;BME280;3370;47.712;9.082;2023-04-09T01:36:07;97601.63;;;4.06;95.29
6668;BME280;3370;47.712;9.082;2023-04-09T01:38:35;97610.16;;;4.01;95.88
6668;BME280;3370;47.712;9.082;2023-04-09T01:41:03;97606.88;;;3.92;96.58
6668;BME280;3370;47.712;9.082;2023-04-09T01:43:30;97609.53;;;3.76;98.23
6668;BME280;3370;47.712;9.082;2023-04-09T01:45:58;97613.91;;;3.60;100.00
6668;BME280;3370;47.712;9.082;2023-04-09T01:48:25;97610.50;;;3.64;100.00
6668;BME280;3370;47.712;9.082;2023-04-09T01:50:51;97610.41;;;3.74;100.00
6668;BME280;3370;47.712;9.082;2023-04-09T01:53:18;97608.69;;;3.76;100.00
6668;BME280;3370;47.712;9.082;2023-04-09T01:55:44;97612.81;;;3.86;100.00
6668;BME280;3370;47.712;9.082;2023-04-09T01:58:11;97617.06;;;3.87;100.00
6668;BME280;3370;47.712;9.082;2023-04-09T02:00:46;97618.69;;;3.96;100.00
6668;BME280;3370;47.712;9.082;2023-04-09T02:03:29;97617.06;;;3.90;100.00
6668;BME280;3370;47.712;9.082;2023-04-09T02:07:03;97613.72;;;3.82;100.00
6668;BME280;3370;47.712;9.082;2023-04-09T02:09:30;97618.06;;;3.72;100.00
6668;BME280;3370;47.712;9.082;2023-04-09T02:12:02;97617.09;;;3.84;100.00
6668;BME280;3370;47.712;9.082;2023-04-09T02:14:32;97622.19;;;3.84;100.00
6668;BME280;3370;47.712;9.082;2023-04-09T02:17:00;97618.81;;;3.82;100.00
6668;BME280;3370;47.712;9.082;2023-04-09T02:19:41;97622.19;;;3.84;100.00
6668;BME280;3370;47.712;9.082;2023-04-09T02:22:08;97617.97;;;3.84;100.00
6668;BME280;3370;47.712;9.082;2023-04-09T02:24:34;97615.38;;;3.88;100.00
6668;BME280;3370;47.712;9.082;2023-04-09T02:27:01;97621.25;;;3.93;100.00
6668;BME280;3370;47.712;9.082;2023-04-09T02:29:27;97618.72;;;3.91;100.00
6668;BME280;3370;47.712;9.082;2023-04-09T02:31:53;97617.88;;;3.92;100.00
6668;BME280;3370;47.712;9.082;2023-04-09T02:34:19;97617.84;;;3.95;100.00
6668;BME280;3370;47.712;9.082;2023-04-09T02:36:45;97614.47;;;3.93;100.00
6668;BME280;3370;47.712;9.082;2023-04-09T02:39:11;97614.41;;;4.02;100.00
6668;BME280;3370;47.712;9.082;2023-04-09T02:41:37;97625.50;;;3.92;100.00
6668;BME280;3370;47.712;9.082;2023-04-09T02:44:02;97622.16;;;3.86;100.00
6668;BME280;3370;47.712;9.082;2023-04-09T02:46:28;97614.63;;;3.78;100.00
6668;BME280;3370;47.712;9.082;2023-04-09T02:48:54;97615.47;;;3.77;100.00
6668;BME280;3370;47.712;9.082;2023-04-09T02:51:20;97615.53;;;3.68;100.00
6668;BME280;3370;47.712;9.082;2023-04-09T02:53:46;97610.56;;;3.55;100.00
6668;BME280;3370;47.712;9.082;2023-04-09T02:56:12;97606.31;;;3.57;100.00
6668;BME280;3370;47.712;9.082;2023-04-09T02:58:37;97610.63;;;3.49;100.00
6668;BME280;3370;47.712;9.082;2023-04-09T03:01:03;97603.88;;;3.42;100.00
6668;BME280;3370;47.712;9.082;2023-04-09T03:03:29;97608.97;;;3.39;100.00
6668;BME280;3370;47.712;9.082;2023-04-09T03:05:56;97603.13;;;3.31;100.00
6668;BME280;3370;47.712;9.082;2023-04-09T03:08:21;97601.50;;;3.20;100.00
6668;BME280;3370;47.712;9.082;2023-04-09T03:10:47;97609.09;;;3.26;100.00
6668;BME280;3370;47.712;9.082;2023-04-09T03:13:13;97595.41;;;3.43;95.51
6668;BME280;3370;47.712;9.082;2023-04-09T03:15:39;97594.59;;;3.39;93.23
6668;BME280;3370;47.712;9.082;2023-04-09T03:18:05;97599.00;;;3.14;95.62
6668;BME280;3370;47.712;9.082;2023-04-09T03:20:30;97598.13;;;3.18;95.32
6668;BME280;3370;47.712;9.082;2023-04-09T03:22:56;97597.22;;;3.25;93.99
6668;BME280;3370;47.712;9.082;2023-04-09T03:25:22;97599.81;;;3.21;94.35
6668;BME280;3370;47.712;9.082;2023-04-09T03:27:48;97595.78;;;2.87;96.53
6668;BME280;3370;47.712;9.082;2023-04-09T03:30:14;97600.03;;;2.85;97.56
6668;BME280;3370;47.712;9.082;2023-04-09T03:32:39;97599.22;;;2.77;98.54
6668;BME280;3370;47.712;9.082;2023-04-09T03:35:06;97601.00;;;2.60;100.00
6668;BME280;3370;47.712;9.082;2023-04-09T03:37:31;97605.22;;;2.64;100.00
6668;BME280;3370;47.712;9.082;2023-04-09T03:39:57;97602.69;;;2.62;100.00
6668;BME280;3370;47.712;9.082;2023-04-09T03:42:23;97601.84;;;2.62;100.00
6668;BME280;3370;47.712;9.082;2023-04-09T03:44:49;97601.00;;;2.63;100.00
6668;BME280;3370;47.712;9.082;2023-04-09T03:47:17;97600.19;;;2.58;100.00
6668;BME280;3370;47.712;9.082;2023-04-09T03:49:43;97600.22;;;2.48;100.00
6668;BME280;3370;47.712;9.082;2023-04-09T03:52:09;97595.97;;;2.47;100.00
6668;BME280;3370;47.712;9.082;2023-04-09T03:54:34;97595.97;;;2.44;100.00
6668;BME280;3370;47.712;9.082;2023-04-09T03:57:00;97594.28;;;2.49;100.00
6668;BME280;3370;47.712;9.082;2023-04-09T03:59:28;97595.94;;;2.60;100.00
6668;BME280;3370;47.712;9.082;2023-04-09T04:01:53;97595.97;;;2.51;100.00
6668;BME280;3370;47.712;9.082;2023-04-09T04:04:19;97596.81;;;2.51;100.00
6668;BME280;3370;47.712;9.082;2023-04-09T04:06:45;97607.84;;;2.48;100.00
6668;BME280;3370;47.712;9.082;2023-04-09T04:09:11;97600.19;;;2.50;100.00
6668;BME280;3370;47.712;9.082;2023-04-09T04:11:36;97606.13;;;2.51;100.00
6668;BME280;3370;47.712;9.082;2023-04-09T04:14:02;97608.66;;;2.52;100.00
6668;BME280;3370;47.712;9.082;2023-04-09T04:16:28;97606.13;;;2.51;100.00
6668;BME280;3370;47.712;9.082;2023-04-09T04:18:54;97606.13;;;2.52;100.00
6668;BME280;3370;47.712;9.082;2023-04-09T04:21:19;97599.34;;;2.56;100.00
6668;BME280;3370;47.712;9.082;2023-04-09T04:23:45;97603.50;;;2.64;100.00
6668;BME280;3370;47.712;9.082;2023-04-09T04:26:11;97598.44;;;2.67;100.00
6668;BME280;3370;47.712;9.082;2023-04-09T04:28:37;97592.50;;;2.67;100.00
6668;BME280;3370;47.712;9.082;2023-04-09T04:31:11;97603.53;;;2.58;100.00
6668;BME280;3370;47.712;9.082;2023-04-09T04:33:38;97606.13;;;2.51;100.00
6668;BME280;3370;47.712;9.082;2023-04-09T04:36:11;97598.44;;;2.66;99.39
6668;BME280;3370;47.712;9.082;2023-04-09T04:38:38;97609.50;;;2.56;96.59
6668;BME280;3370;47.712;9.082;2023-04-09T04:41:04;97616.31;;;2.35;97.34
6668;BME280;3370;47.712;9.082;2023-04-09T04:43:30;97619.75;;;2.22;98.52
6668;BME280;3370;47.712;9.082;2023-04-09T04:45:57;97619.78;;;1.97;100.00
6668;BME280;3370;47.712;9.082;2023-04-09T04:48:23;97628.28;;;1.96;100.00
6668;BME280;3370;47.712;9.082;2023-04-09T04:51:00;97623.19;;;2.05;100.00
6668;BME280;3370;47.712;9.082;2023-04-09T04:53:26;97619.81;;;2.03;100.00
6668;BME280;3370;47.712;9.082;2023-04-09T04:55:52;97619.81;;;2.03;100.00
6668;BME280;3370;47.712;9.082;2023-04-09T04:58:18;97627.38;;;2.14;100.00
6668;BME280;3370;47.712;9.082;2023-04-09T05:00:44;97627.34;;;2.29;100.00
6668;BME280;3370;47.712;9.082;2023-04-09T05:03:11;97623.97;;;2.27;100.00
6668;BME280;3370;47.712;9.082;2023-04-09T05:05:37;97630.72;;;2.33;100.00
6668;BME280;3370;47.712;9.082;2023-04-09T05:08:02;97634.94;;;2.34;100.00
6668;BME280;3370;47.712;9.082;2023-04-09T05:10:28;97627.28;;;2.53;100.00
6668;BME280;3370;47.712;9.082;2023-04-09T05:12:54;97634.00;;;2.58;100.00
6668;BME280;3370;47.712;9.082;2023-04-09T05:15:20;97637.47;;;2.45;100.00
6668;BME280;3370;47.712;9.082;2023-04-09T05:17:46;97638.28;;;2.39;100.00
6668;BME280;3370;47.712;9.082;2023-04-09T05:20:12;97634.06;;;2.49;100.00
6668;BME280;3370;47.712;9.082;2023-04-09T05:22:38;97641.66;;;2.47;100.00
6668;BME280;3370;47.712;9.082;2023-04-09T05:25:04;97647.50;;;2.76;99.91
6668;BME280;3370;47.712;9.082;2023-04-09T05:27:30;97645.88;;;2.59;100.00
6668;BME280;3370;47.712;9.082;2023-04-09T05:29:56;97655.19;;;2.56;100.00
6668;BME280;3370;47.712;9.082;2023-04-09T05:32:22;97650.94;;;2.50;100.00
6668;BME280;3370;47.712;9.082;2023-04-09T05:34:47;97641.66;;;2.46;100.00
6668;BME280;3370;47.712;9.082;2023-04-09T05:37:13;97648.41;;;2.55;100.00
6668;BME280;3370;47.712;9.082;2023-04-09T05:39:39;97642.44;;;2.66;100.00
6668;BME280;3370;47.712;9.082;2023-04-09T05:42:05;97646.72;;;2.63;100.00
6668;BME280;3370;47.712;9.082;2023-04-09T05:44:31;97645.84;;;2.64;100.00
6668;BME280;3370;47.712;9.082;2023-04-09T05:46:56;97639.91;;;2.65;100.00
6668;BME280;3370;47.712;9.082;2023-04-09T05:49:23;97639.06;;;2.69;100.00
6668;BME280;3370;47.712;9.082;2023-04-09T05:51:49;97640.72;;;2.73;100.00
6668;BME280;3370;47.712;9.082;2023-04-09T05:54:15;97637.34;;;2.71;100.00
6668;BME280;3370;47.712;9.082;2023-04-09T05:56:42;97638.19;;;2.70;100.00
6668;BME280;3370;47.712;9.082;2023-04-09T05:59:08;97637.31;;;2.77;100.00
6668;BME280;3370;47.712;9.082;2023-04-09T06:01:33;97631.38;;;2.81;100.00
6668;BME280;3370;47.712;9.082;2023-04-09T06:03:59;97633.06;;;2.82;100.00
6668;BME280;3370;47.712;9.082;2023-04-09T06:06:25;97633.03;;;2.87;100.00
6668;BME280;3370;47.712;9.082;2023-04-09T06:08:51;97634.66;;;3.02;100.00
6668;BME280;3370;47.712;9.082;2023-04-09T06:11:17;97634.59;;;3.08;100.00
6668;BME280;3370;47.712;9.082;2023-04-09T06:13:43;97640.44;;;3.22;100.00
6668;BME280;3370;47.712;9.082;2023-04-09T06:16:09;97637.06;;;3.23;100.00
6668;BME280;3370;47.712;9.082;2023-04-09T06:18:36;97634.50;;;3.26;100.00
6668;BME280;3370;47.712;9.082;2023-04-09T06:21:07;97637.84;;;3.32;100.00
6668;BME280;3370;47.712;9.082;2023-04-09T06:23:34;97640.31;;;3.44;100.00
6668;BME280;3370;47.712;9.082;2023-04-09T06:26:01;97644.56;;;3.45;100.00
6668;BME280;3370;47.712;9.082;2023-04-09T06:28:30;97637.84;;;3.35;100.00
6668;BME280;3370;47.712;9.082;2023-04-09T06:30:57;97640.38;;;3.38;100.00
6668;BME280;3370;47.712;9.082;2023-04-09T06:33:23;97633.53;;;3.44;100.00
6668;BME280;3370;47.712;9.082;2023-04-09T06:35:49;97626.75;;;3.48;100.00
6668;BME280;3370;47.712;9.082;2023-04-09T06:38:15;97623.31;;;3.52;100.00
6668;BME280;3370;47.712;9.082;2023-04-09T06:40:41;97626.63;;;3.62;100.00
6668;BME280;3370;47.712;9.082;2023-04-09T06:43:07;97629.09;;;3.70;100.00
6668;BME280;3370;47.712;9.082;2023-04-09T06:45:32;97639.22;;;3.79;100.00
6668;BME280;3370;47.712;9.082;2023-04-09T06:47:59;97634.00;;;3.91;100.00
6668;BME280;3370;47.712;9.082;2023-04-09T06:50:25;97629.69;;;3.99;100.00
6668;BME280;3370;47.712;9.082;2023-04-09T06:52:51;97632.13;;;4.09;100.00
6668;BME280;3370;47.712;9.082;2023-04-09T06:55:17;97640.50;;;4.20;100.00
6668;BME280;3370;47.712;9.082;2023-04-09T06:57:43;97636.19;;;4.27;99.97
6668;BME280;3370;47.712;9.082;2023-04-09T07:00:09;97637.00;;;4.33;99.05
6668;BME280;3370;47.712;9.082;2023-04-09T07:02:36;97638.56;;;4.40;98.42
6668;BME280;3370;47.712;9.082;2023-04-09T07:05:02;97638.53;;;4.47;97.51
6668;BME280;3370;47.712;9.082;2023-04-09T07:07:29;97646.06;;;4.54;97.12
6668;BME280;3370;47.712;9.082;2023-04-09T07:09:55;97640.94;;;4.59;96.81
6668;BME280;3370;47.712;9.082;2023-04-09T07:12:31;97636.59;;;4.66;96.05
6668;BME280;3370;47.712;9.082;2023-04-09T07:15:02;97637.28;;;4.78;94.87
6668;BME280;3370;47.712;9.082;2023-04-09T07:17:30;97636.34;;;4.86;94.69
6668;BME280;3370;47.712;9.082;2023-04-09T07:19:56;97636.19;;;4.98;94.77
6668;BME280;3370;47.712;9.082;2023-04-09T07:22:25;97637.72;;;5.11;93.77
6668;BME280;3370;47.712;9.082;2023-04-09T07:24:52;97629.06;;;5.22;93.70
6668;BME280;3370;47.712;9.082;2023-04-09T07:27:22;97623.81;;;5.34;92.85
6668;BME280;3370;47.712;9.082;2023-04-09T07:29:49;97630.53;;;5.38;92.17
6668;BME280;3370;47.712;9.082;2023-04-09T07:32:15;97631.28;;;5.45;91.34
6668;BME280;3370;47.712;9.082;2023-04-09T07:34:43;97635.63;;;5.38;92.13
6668;BME280;3370;47.712;9.082;2023-04-09T07:37:08;97626.81;;;5.61;94.78
6668;BME280;3370;47.712;9.082;2023-04-09T07:39:34;97627.25;;;5.86;90.82
6668;BME280;3370;47.712;9.082;2023-04-09T07:42:04;97628.06;;;5.88;91.10
6668;BME280;3370;47.712;9.082;2023-04-09T07:44:36;97629.66;;;5.93;91.88
6668;BME280;3370;47.712;9.082;2023-04-09T07:47:04;97627.72;;;6.09;89.36
6668;BME280;3370;47.712;9.082;2023-04-09T07:49:30;97632.47;;;6.29;89.74
6668;BME280;3370;47.712;9.082;2023-04-09T07:51:58;97639.84;;;6.43;87.56
6668;BME280;3370;47.712;9.082;2023-04-09T07:54:24;97630.22;;;6.56;86.76
6668;BME280;3370;47.712;9.082;2023-04-09T07:56:50;97633.28;;;6.74;88.31
6668;BME280;3370;47.712;9.082;2023-04-09T07:59:16;97626.91;;;6.95;88.06
6668;BME280;3370;47.712;9.082;2023-04-09T08:01:43;97630.28;;;6.97;86.05
6668;BME280;3370;47.712;9.082;2023-04-09T08:04:09;97631.84;;;7.02;85.76
6668;BME280;3370;47.712;9.082;2023-04-09T08:06:35;97634.81;;;7.23;85.56
6668;BME280;3370;47.712;9.082;2023-04-09T08:09:01;97634.72;;;7.27;81.69
6668;BME280;3370;47.712;9.082;2023-04-09T08:11:27;97625.88;;;7.41;82.32
6668;BME280;3370;47.712;9.082;2023-04-09T08:13:54;97629.78;;;7.56;80.00
6668;BME280;3370;47.712;9.082;2023-04-09T08:16:20;97634.28;;;7.46;78.16
6668;BME280;3370;47.712;9.082;2023-04-09T08:18:49;97642.91;;;7.42;77.75
6668;BME280;3370;47.712;9.082;2023-04-09T08:21:14;97639.69;;;7.34;78.12
6668;BME280;3370;47.712;9.082;2023-04-09T08:23:40;97639.75;;;7.30;77.92
6668;BME280;3370;47.712;9.082;2023-04-09T08:26:06;97642.34;;;7.29;78.01
6668;BME280;3370;47.712;9.082;2023-04-09T08:28:32;97638.94;;;7.28;77.72
6668;BME280;3370;47.712;9.082;2023-04-09T08:30:58;97640.50;;;7.34;77.44
6668;BME280;3370;47.712;9.082;2023-04-09T08:33:24;97647.25;;;7.38;77.10
6668;BME280;3370;47.712;9.082;2023-04-09T08:35:50;97645.28;;;7.49;76.82
6668;BME280;3370;47.712;9.082;2023-04-09T08:38:15;97638.06;;;7.67;75.87
6668;BME280;3370;47.712;9.082;2023-04-09T08:40:41;97642.03;;;7.79;75.36
6668;BME280;3370;47.712;9.082;2023-04-09T08:43:07;97633.56;;;7.77;75.18
6668;BME280;3370;47.712;9.082;2023-04-09T08:45:35;97642.88;;;7.79;75.29
6668;BME280;3370;47.712;9.082;2023-04-09T08:48:02;97634.84;;;7.93;74.63
6668;BME280;3370;47.712;9.082;2023-04-09T08:50:32;97638.97;;;7.99;74.39
6668;BME280;3370;47.712;9.082;2023-04-09T08:53:05;97644.84;;;8.04;73.96
6668;BME280;3370;47.712;9.082;2023-04-09T08:55:32;97642.88;;;8.14;74.21
6668;BME280;3370;47.712;9.082;2023-04-09T08:58:05;97651.25;;;8.53;72.51
6668;BME280;3370;47.712;9.082;2023-04-09T09:00:32;97645.94;;;8.91;70.99
6668;BME280;3370;47.712;9.082;2023-04-09T09:03:10;97646.16;;;9.13;69.30
6668;BME280;3370;47.712;9.082;2023-04-09T09:05:40;97641.78;;;9.16;69.07
6668;BME280;3370;47.712;9.082;2023-04-09T09:08:22;97639.88;;;9.23;69.10
6668;BME280;3370;47.712;9.082;2023-04-09T09:10:48;97644.91;;;9.26;68.80
6668;BME280;3370;47.712;9.082;2023-04-09T09:13:25;97640.94;;;9.44;67.88
6668;BME280;3370;47.712;9.082;2023-04-09T09:15:54;97633.53;;;9.62;66.46
6668;BME280;3370;47.712;9.082;2023-04-09T09:18:41;97636.50;;;9.76;65.78
6668;BME280;3370;47.712;9.082;2023-04-09T09:21:15;97641.00;;;9.96;65.67
6668;BME280;3370;47.712;9.082;2023-04-09T09:23:42;97637.59;;;9.95;64.49
6668;BME280;3370;47.712;9.082;2023-04-09T09:26:26;97643.78;;;9.90;68.85
6668;BME280;3370;47.712;9.082;2023-04-09T09:28:53;97644.13;;;10.04;69.38
6668;BME280;3370;47.712;9.082;2023-04-09T09:31:21;97640.69;;;10.05;68.38
6668;BME280;3370;47.712;9.082;2023-04-09T09:33:47;97632.88;;;10.08;67.19
6668;BME280;3370;47.712;9.082;2023-04-09T09:36:14;97638.78;;;9.85;65.75
6668;BME280;3370;47.712;9.082;2023-04-09T09:38:58;97638.56;;;9.91;66.96
6668;BME280;3370;47.712;9.082;2023-04-09T09:41:26;97642.97;;;9.88;65.84
6668;BME280;3370;47.712;9.082;2023-04-09T09:43:52;97642.97;;;9.88;65.67
6668;BME280;3370;47.712;9.082;2023-04-09T09:46:20;97641.56;;;9.79;64.75
6668;BME280;3370;47.712;9.082;2023-04-09T09:48:46;97643.19;;;9.82;65.45
6668;BME280;3370;47.712;9.082;2023-04-09T09:51:14;97647.72;;;9.73;65.14
6668;BME280;3370;47.712;9.082;2023-04-09T09:53:43;97643.09;;;9.85;66.17
6668;BME280;3370;47.712;9.082;2023-04-09T09:56:22;97646.91;;;9.98;66.56
6668;BME280;3370;47.712;9.082;2023-04-09T09:59:06;97649.91;;;10.11;66.02
6668;BME280;3370;47.712;9.082;2023-04-09T10:01:36;97639.19;;;10.25;64.11
6668;BME280;3370;47.712;9.082;2023-04-09T10:04:05;97638.69;;;10.64;63.44
6668;BME280;3370;47.712;9.082;2023-04-09T10:06:34;97640.50;;;10.85;66.66
6668;BME280;3370;47.712;9.082;2023-04-09T10:09:03;97646.69;;;11.03;63.03
6668;BME280;3370;47.712;9.082;2023-04-09T10:11:32;97641.78;;;10.97;64.44
6668;BME280;3370;47.712;9.082;2023-04-09T10:14:00;97642.00;;;10.67;63.13
6668;BME280;3370;47.712;9.082;2023-04-09T10:16:26;97639.94;;;11.01;61.62
6668;BME280;3370;47.712;9.082;2023-04-09T10:18:57;97646.00;;;11.22;62.14
6668;BME280;3370;47.712;9.082;2023-04-09T10:24:10;97628.34;;;11.57;60.81
6668;BME280;3370;47.712;9.082;2023-04-09T10:26:40;97624.94;;;11.56;61.51
6668;BME280;3370;47.712;9.082;2023-04-09T10:29:11;97634.94;;;11.42;62.41
6668;BME280;3370;47.712;9.082;2023-04-09T10:32:04;97625.28;;;11.47;60.61
6668;BME280;3370;47.712;9.082;2023-04-09T10:34:36;97629.06;;;11.60;60.35
6668;BME280;3370;47.712;9.082;2023-04-09T10:37:02;97632.66;;;11.56;57.14
6668;BME280;3370;47.712;9.082;2023-04-09T10:39:32;97633.41;;;11.58;58.15
6668;BME280;3370;47.712;9.082;2023-04-09T10:42:00;97623.41;;;11.73;58.09
6668;BME280;3370;47.712;9.082;2023-04-09T10:44:31;97626.94;;;12.13;58.76
6668;BME280;3370;47.712;9.082;2023-04-09T10:47:00;97624.63;;;12.48;60.08
6668;BME280;3370;47.712;9.082;2023-04-09T10:49:38;97628.34;;;12.61;56.44
6668;BME280;3370;47.712;9.082;2023-04-09T10:52:09;97625.75;;;12.61;55.88
6668;BME280;3370;47.712;9.082;2023-04-09T10:54:44;97618.41;;;12.52;55.44
6668;BME280;3370;47.712;9.082;2023-04-09T11:05:32;97605.44;;;12.14;54.48
6668;BME280;3370;47.712;9.082;2023-04-09T11:08:08;97608.69;;;12.77;53.83
6668;BME280;3370;47.712;9.082;2023-04-09T11:10:36;97604.44;;;13.87;53.65
6668;BME280;3370;47.712;9.082;2023-04-09T11:13:03;97602.97;;;14.50;48.58
6668;BME280;3370;47.712;9.082;2023-04-09T11:15:32;97602.97;;;15.31;49.99
6668;BME280;3370;47.712;9.082;2023-04-09T11:17:59;97595.19;;;14.50;52.09
6668;BME280;3370;47.712;9.082;2023-04-09T11:20:25;97601.16;;;15.17;51.61
6668;BME280;3370;47.712;9.082;2023-04-09T11:22:54;97577.66;;;16.84;43.71
6668;BME280;3370;47.712;9.082;2023-04-09T11:25:30;97580.31;;;15.50;44.47
6668;BME280;3370;47.712;9.082;2023-04-09T11:27:56;97585.66;;;15.47;43.61
6668;BME280;3370;47.712;9.082;2023-04-09T11:30:22;97587.44;;;14.50;45.35
6668;BME280;3370;47.712;9.082;2023-04-09T11:32:48;97583.09;;;14.17;45.51
6668;BME280;3370;47.712;9.082;2023-04-09T11:35:19;97582.25;;;14.99;48.09
6668;BME280;3370;47.712;9.082;2023-04-09T11:37:46;97589.56;;;16.15;45.55
6668;BME280;3370;47.712;9.082;2023-04-09T11:40:23;97592.94;;;16.17;44.38
6668;BME280;3370;47.712;9.082;2023-04-09T11:42:54;97574.34;;;18.04;39.42
6668;BME280;3370;47.712;9.082;2023-04-09T11:45:23;97579.31;;;18.07;38.67
6668;BME280;3370;47.712;9.082;2023-04-09T11:47:50;97583.56;;;16.72;39.72
6668;BME280;3370;47.712;9.082;2023-04-09T11:50:16;97590.41;;;15.55;41.54
6668;BME280;3370;47.712;9.082;2023-04-09T11:52:44;97593.44;;;15.47;45.09
6668;BME280;3370;47.712;9.082;2023-04-09T11:55:11;97591.53;;;15.35;42.98
6668;BME280;3370;47.712;9.082;2023-04-09T11:57:47;97590.91;;;15.16;43.56
6668;BME280;3370;47.712;9.082;2023-04-09T12:00:16;97595.28;;;15.13;44.04
6668;BME280;3370;47.712;9.082;2023-04-09T12:02:47;97591.03;;;14.97;45.65
6668;BME280;3370;47.712;9.082;2023-04-09T12:05:24;97599.53;;;14.83;45.54
6668;BME280;3370;47.712;9.082;2023-04-09T12:07:56;97592.38;;;15.66;44.50
6668;BME280;3370;47.712;9.082;2023-04-09T12:10:30;97579.75;;;16.78;43.42
6668;BME280;3370;47.712;9.082;2023-04-09T12:13:02;97571.75;;;17.64;39.88
6668;BME280;3370;47.712;9.082;2023-04-09T12:15:35;97568.66;;;17.85;38.01
6668;BME280;3370;47.712;9.082;2023-04-09T12:18:01;97566.25;;;17.81;40.92
6668;BME280;3370;47.712;9.082;2023-04-09T12:20:33;97567.88;;;18.48;38.87
6668;BME280;3370;47.712;9.082;2023-04-09T12:23:00;97559.00;;;19.62;38.42
6668;BME280;3370;47.712;9.082;2023-04-09T12:25:29;97567.03;;;19.83;35.89
6668;BME280;3370;47.712;9.082;2023-04-09T12:27:55;97555.34;;;20.11;34.34
6668;BME280;3370;47.712;9.082;2023-04-09T12:30:22;97557.00;;;21.57;32.24
6668;BME280;3370;47.712;9.082;2023-04-09T12:32:49;97554.88;;;21.51;31.93
6668;BME280;3370;47.712;9.082;2023-04-09T12:35:14;97569.75;;;19.09;33.52
6668;BME280;3370;47.712;9.082;2023-04-09T12:37:41;97571.16;;;18.76;35.89
6668;BME280;3370;47.712;9.082;2023-04-09T12:40:08;97565.28;;;19.11;34.36
6668;BME280;3370;47.712;9.082;2023-04-09T12:42:35;97564.38;;;20.29;32.00
6668;BME280;3370;47.712;9.082;2023-04-09T12:45:00;97563.53;;;20.06;32.43
6668;BME280;3370;47.712;9.082;2023-04-09T12:47:26;97561.47;;;19.87;32.35
6668;BME280;3370;47.712;9.082;2023-04-09T12:49:53;97554.81;;;19.24;34.08
6668;BME280;3370;47.712;9.082;2023-04-09T12:52:19;97571.97;;;19.02;33.33
6668;BME280;3370;47.712;9.082;2023-04-09T12:54:44;97559.03;;;18.64;32.59
6668;BME280;3370;47.712;9.082;2023-04-09T12:57:11;97562.09;;;18.94;33.16
6668;BME280;3370;47.712;9.082;2023-04-09T12:59:36;97555.66;;;18.62;33.82
6668;BME280;3370;47.712;9.082;2023-04-09T13:02:02;97557.88;;;18.16;35.00
6668;BME280;3370;47.712;9.082;2023-04-09T13:04:28;97549.81;;;17.81;35.08
6668;BME280;3370;47.712;9.082;2023-04-09T13:06:54;97549.13;;;18.30;34.51
6668;BME280;3370;47.712;9.082;2023-04-09T13:09:19;97540.81;;;19.49;35.62
6668;BME280;3370;47.712;9.082;2023-04-09T13:11:45;97535.19;;;20.24;32.92
6668;BME280;3370;47.712;9.082;2023-04-09T13:14:11;97532.22;;;20.85;30.16
6668;BME280;3370;47.712;9.082;2023-04-09T13:16:39;97536.09;;;21.02;30.75
6668;BME280;3370;47.712;9.082;2023-04-09T13:19:09;97531.09;;;21.54;29.86
6668;BME280;3370;47.712;9.082;2023-04-09T13:21:35;97531.63;;;22.83;28.39
6668;BME280;3370;47.712;9.082;2023-04-09T13:24:02;97530.19;;;23.19;27.30
6668;BME280;3370;47.712;9.082;2023-04-09T13:26:29;97528.88;;;22.44;27.70
6668;BME280;3370;47.712;9.082;2023-04-09T13:28:56;97531.97;;;21.32;28.94
6668;BME280;3370;47.712;9.082;2023-04-09T13:31:22;97530.28;;;20.99;28.65
6668;BME280;3370;47.712;9.082;2023-04-09T13:33:47;97534.59;;;20.55;30.16
6668;BME280;3370;47.712;9.082;2023-04-09T13:36:13;97528.66;;;20.07;31.52
6668;BME280;3370;47.712;9.082;2023-04-09T13:38:39;97528.72;;;19.59;31.27
6668;BME280;3370;47.712;9.082;2023-04-09T13:41:05;97509.28;;;19.87;30.95
6668;BME280;3370;47.712;9.082;2023-04-09T13:43:30;97519.63;;;19.65;30.19
6668;BME280;3370;47.712;9.082;2023-04-09T13:45:56;97513.25;;;19.69;32.41
6668;BME280;3370;47.712;9.082;2023-04-09T13:48:23;97516.63;;;19.94;31.90
6668;BME280;3370;47.712;9.082;2023-04-09T13:50:49;97522.31;;;19.52;33.06
6668;BME280;3370;47.712;9.082;2023-04-09T13:53:15;97517.84;;;19.30;31.27